Altamont, Tennessee
Current Conditions -  °F | °C
As of 3:35 PM on Friday 31 Oct 2014 (Local Time) from KRNC Reporting Station
Broken Clouds Broken Clouds  
Wind Chill: 46°   Ceiling: 4800
Heat Index: 46°   Visibility: 8mi
Dew Point: 46°   Wind: 0mph
Humidity: 100%   Direction: NA
Pressure: 29.96"   Gusts: NA
Location:  35.43°N, 85.72°W
Report Text: KRNC 312035Z AUTO 00000KT 8SM FEW026 SCT041 BKN048 08/08 A2996 RMK
Loading
Personal Weather Stations






























Interactive Weather Map
Tropical Storm Tracking
New forecast layout! Learn more

10-Day Weather Forecast

Advertisements
Track Severe Weather on mobile